createdAt,value
2019-06-26T00:00:55.496Z,38.00
2019-06-26T00:03:22.569Z,39.50
2019-06-26T00:05:49.676Z,38.70
2019-06-26T00:08:16.707Z,39.80
2019-06-26T00:10:43.639Z,39.90
2019-06-26T00:13:25.029Z,39.50
2019-06-26T00:15:39.405Z,38.90
2019-06-26T00:18:07.662Z,39.00
2019-06-26T00:20:34.812Z,39.60
2019-06-26T00:23:03.567Z,39.20
2019-06-26T00:25:30.650Z,38.60
2019-06-26T00:27:57.632Z,38.50
2019-06-26T00:30:24.718Z,39.70
2019-06-26T00:32:51.700Z,38.60
2019-06-26T00:35:18.836Z,39.10
2019-06-26T00:37:45.818Z,38.70
2019-06-26T00:40:13.062Z,38.50
2019-06-26T00:42:39.984Z,38.60
2019-06-26T00:45:07.806Z,39.10
2019-06-26T00:47:34.814Z,39.10
2019-06-26T00:50:01.866Z,39.20
2019-06-26T00:52:29.017Z,39.70
2019-06-26T00:54:56.076Z,40.10
2019-06-26T00:57:23.080Z,39.60
2019-06-26T00:59:50.237Z,39.30
2019-06-26T01:02:17.353Z,40.20
2019-06-26T01:04:55.120Z,40.00
2019-06-26T01:07:22.134Z,40.10
2019-06-26T01:09:49.242Z,40.90
2019-06-26T01:12:16.230Z,40.50
2019-06-26T01:14:43.201Z,40.60
2019-06-26T01:17:10.409Z,40.70
2019-06-26T01:19:37.549Z,41.20
2019-06-26T01:22:04.591Z,40.80
2019-06-26T01:24:31.565Z,41.30
2019-06-26T01:26:58.523Z,40.70
2019-06-26T01:29:25.592Z,40.90
2019-06-26T01:31:52.623Z,40.80
2019-06-26T01:34:19.593Z,41.70
2019-06-26T01:36:46.709Z,41.10
2019-06-26T01:39:13.679Z,42.00
2019-06-26T01:41:41.374Z,41.60
2019-06-26T01:44:14.952Z,41.00
2019-06-26T01:46:37.271Z,40.20
2019-06-26T01:49:04.324Z,41.80
2019-06-26T01:51:31.210Z,41.90
2019-06-26T01:53:58.196Z,41.80
2019-06-26T01:56:25.325Z,42.10
2019-06-26T01:58:52.328Z,41.80
2019-06-26T02:01:19.854Z,41.80
2019-06-26T02:03:46.859Z,41.80
2019-06-26T02:06:13.877Z,42.30
2019-06-26T02:08:40.898Z,42.20
2019-06-26T02:11:07.976Z,41.70
2019-06-26T02:13:34.865Z,41.80
2019-06-26T02:16:01.834Z,42.60
2019-06-26T02:18:39.757Z,42.00
2019-06-26T02:21:06.716Z,42.40
2019-06-26T02:23:33.795Z,42.70
2019-06-26T02:26:00.810Z,43.10
2019-06-26T02:28:27.964Z,43.00
2019-06-26T02:30:54.908Z,42.60
2019-06-26T02:33:21.993Z,42.60
2019-06-26T02:35:49.033Z,42.80
2019-06-26T02:38:16.145Z,43.40
2019-06-26T02:40:43.199Z,44.70
2019-06-26T02:43:10.383Z,43.70
2019-06-26T02:45:37.458Z,44.60
2019-06-26T02:48:04.480Z,43.10
2019-06-26T02:50:31.527Z,44.20
2019-06-26T02:52:58.565Z,44.20
2019-06-26T02:55:25.712Z,44.80
2019-06-26T02:57:52.777Z,44.10
2019-06-26T03:00:19.783Z,44.20
2019-06-26T03:02:46.857Z,44.20
2019-06-26T03:05:13.814Z,44.60
2019-06-26T03:07:40.897Z,45.00
2019-06-26T03:10:08.256Z,45.00
2019-06-26T03:12:35.461Z,45.00
2019-06-26T03:15:08.747Z,45.20
2019-06-26T03:17:31.653Z,45.40
2019-06-26T03:19:58.783Z,46.00
2019-06-26T03:22:25.753Z,46.00
2019-06-26T03:25:12.401Z,45.60
2019-06-26T03:27:39.365Z,45.50
2019-06-26T03:30:06.618Z,46.10
2019-06-26T03:32:33.632Z,46.00
2019-06-26T03:35:00.701Z,46.30
2019-06-26T03:37:27.758Z,46.10
2019-06-26T03:39:54.670Z,47.10
2019-06-26T03:42:21.737Z,47.00
2019-06-26T03:44:48.729Z,47.20
2019-06-26T03:47:15.758Z,47.80
2019-06-26T03:49:42.818Z,47.10
2019-06-26T03:52:09.804Z,47.30
2019-06-26T03:54:36.877Z,47.40
2019-06-26T03:57:03.947Z,48.50
2019-06-26T03:59:31.009Z,48.70
2019-06-26T04:01:58.132Z,47.90
2019-06-26T04:04:25.217Z,48.10
2019-06-26T04:06:52.266Z,48.00
2019-06-26T04:09:19.253Z,48.40
2019-06-26T04:11:46.211Z,49.00
2019-06-26T04:14:13.199Z,48.70
2019-06-26T04:16:43.990Z,49.00
2019-06-26T04:19:11.059Z,48.90
2019-06-26T04:21:38.093Z,49.50
2019-06-26T04:24:04.999Z,49.40
2019-06-26T04:26:32.166Z,49.60
2019-06-26T04:28:59.201Z,49.30
2019-06-26T04:31:27.363Z,50.30
2019-06-26T04:33:55.575Z,50.90
2019-06-26T04:36:22.577Z,51.10
2019-06-26T04:38:59.052Z,51.00
2019-06-26T04:41:33.329Z,51.00
2019-06-26T04:44:02.342Z,51.10
2019-06-26T04:46:29.301Z,51.10
2019-06-26T04:48:56.351Z,51.20
2019-06-26T04:51:23.294Z,51.90
2019-06-26T04:53:50.263Z,51.80
2019-06-26T04:56:17.117Z,51.30
2019-06-26T04:58:44.087Z,51.30
2019-06-26T05:01:13.877Z,51.40
2019-06-26T05:03:40.876Z,51.50
2019-06-26T05:06:07.825Z,51.70
2019-06-26T05:08:34.731Z,52.00
2019-06-26T05:11:01.798Z,52.10
2019-06-26T05:13:28.819Z,51.70
2019-06-26T05:15:55.788Z,52.60
2019-06-26T05:18:22.707Z,51.90
2019-06-26T05:20:49.719Z,52.00
2019-06-26T05:23:16.784Z,51.90
2019-06-26T05:25:43.859Z,50.20
2019-06-26T05:28:11.950Z,49.70
2019-06-26T05:30:39.224Z,49.20
2019-06-26T05:33:06.306Z,49.10
2019-06-26T05:35:35.474Z,49.20
2019-06-26T05:38:02.801Z,49.00
2019-06-26T05:40:29.870Z,48.90
2019-06-26T05:42:56.904Z,48.90
2019-06-26T05:45:24.001Z,48.90
2019-06-26T05:47:51.469Z,48.70
2019-06-26T05:50:18.816Z,49.00
2019-06-26T05:52:45.826Z,48.80
2019-06-26T05:55:13.132Z,48.80
2019-06-26T05:57:41.926Z,48.90
2019-06-26T06:00:09.600Z,48.60
2019-06-26T06:02:36.844Z,48.90
2019-06-26T06:05:04.830Z,48.80
2019-06-26T06:07:31.953Z,49.30
2019-06-26T06:09:58.879Z,48.30
2019-06-26T06:12:26.013Z,48.00
2019-06-26T06:14:53.026Z,47.10
2019-06-26T06:17:19.933Z,46.80
2019-06-26T06:19:47.111Z,45.70
2019-06-26T06:22:14.132Z,45.40
2019-06-26T06:24:41.185Z,45.40
2019-06-26T06:27:08.194Z,45.00
2019-06-26T06:29:35.537Z,46.00
2019-06-26T06:32:02.519Z,45.10
2019-06-26T06:34:29.665Z,45.80
2019-06-26T06:36:56.682Z,45.40
2019-06-26T06:39:23.655Z,44.60
2019-06-26T06:41:50.723Z,43.60
2019-06-26T06:44:17.701Z,43.90
2019-06-26T06:46:45.540Z,44.80
2019-06-26T06:49:12.545Z,43.90
2019-06-26T06:51:39.587Z,43.90
2019-06-26T06:54:06.670Z,43.90
2019-06-26T06:56:33.834Z,44.00
2019-06-26T06:59:00.817Z,44.00
2019-06-26T07:01:27.866Z,44.10
2019-06-26T07:03:55.011Z,44.10
2019-06-26T07:06:22.105Z,44.10
2019-06-26T07:08:49.126Z,44.30
2019-06-26T07:11:16.402Z,42.60
2019-06-26T07:13:43.453Z,40.80
2019-06-26T07:16:10.698Z,39.50
2019-06-26T07:18:37.725Z,37.80
2019-06-26T07:21:04.838Z,36.10
2019-06-26T07:23:32.257Z,37.30
2019-06-26T07:25:59.604Z,36.70
2019-06-26T07:28:26.628Z,35.60
2019-06-26T07:30:54.208Z,35.60
2019-06-26T07:33:21.236Z,35.50
2019-06-26T07:35:48.223Z,36.50
2019-06-26T07:38:15.356Z,37.60
2019-06-26T07:40:42.353Z,37.40
2019-06-26T07:43:09.327Z,37.30
2019-06-26T07:45:36.520Z,36.80
2019-06-26T07:48:03.698Z,37.50
2019-06-26T07:50:32.622Z,37.80
2019-06-26T07:52:59.781Z,37.40
2019-06-26T07:55:26.929Z,37.50
2019-06-26T07:57:53.796Z,37.80
2019-06-26T08:00:22.448Z,38.00
2019-06-26T08:02:49.428Z,38.90
2019-06-26T08:05:17.513Z,39.00
2019-06-26T08:07:44.552Z,39.00
2019-06-26T08:10:13.038Z,39.10
2019-06-26T08:12:40.098Z,39.50
2019-06-26T08:15:07.544Z,39.90
2019-06-26T08:17:34.534Z,39.70
2019-06-26T08:20:01.528Z,39.70
2019-06-26T08:22:28.597Z,38.70
2019-06-26T08:24:55.663Z,38.30
2019-06-26T08:27:22.770Z,37.60
2019-06-26T08:29:49.830Z,37.40
2019-06-26T08:32:16.804Z,37.00
2019-06-26T08:34:45.278Z,37.40
2019-06-26T08:37:12.209Z,37.20
2019-06-26T08:39:39.154Z,37.20
2019-06-26T08:42:06.101Z,37.80
2019-06-26T08:44:33.061Z,38.40
2019-06-26T08:47:00.083Z,38.20
2019-06-26T08:49:27.533Z,37.40
2019-06-26T08:51:54.523Z,36.70
2019-06-26T08:54:21.528Z,35.70
2019-06-26T08:56:48.629Z,35.70
2019-06-26T08:59:15.585Z,36.40
2019-06-26T09:01:42.905Z,35.90
2019-06-26T09:04:10.044Z,36.10
2019-06-26T09:06:37.136Z,32.30
2019-06-26T09:09:05.640Z,31.70
2019-06-26T09:11:32.598Z,29.70
2019-06-26T09:13:59.670Z,29.30
2019-06-26T09:16:33.076Z,26.50
2019-06-26T09:19:00.121Z,25.10
2019-06-26T09:21:30.056Z,26.10
2019-06-26T09:23:55.961Z,25.80
2019-06-26T09:26:22.912Z,24.40
2019-06-26T09:28:49.962Z,22.90
2019-06-26T09:31:17.710Z,22.10
2019-06-26T09:33:44.721Z,21.60
2019-06-26T09:36:11.791Z,22.10
2019-06-26T09:38:38.698Z,22.00
2019-06-26T09:41:05.842Z,21.90
2019-06-26T09:43:32.889Z,21.30
2019-06-26T09:45:59.950Z,21.20
2019-06-26T09:48:27.024Z,21.50
2019-06-26T09:50:54.179Z,22.10
2019-06-26T09:53:21.261Z,22.40
2019-06-26T09:55:48.732Z,23.40
2019-06-26T09:58:15.720Z,23.90
2019-06-26T10:00:42.759Z,24.30
2019-06-26T10:03:09.986Z,23.90
2019-06-26T10:05:37.402Z,23.90
2019-06-26T10:08:04.594Z,23.80
2019-06-26T10:10:31.585Z,23.60
2019-06-26T10:12:58.590Z,23.90
2019-06-26T10:15:25.644Z,23.90
2019-06-26T10:17:52.887Z,23.50
2019-06-26T10:20:20.057Z,23.30
2019-06-26T10:22:52.255Z,22.70
2019-06-26T10:25:19.670Z,22.70
2019-06-26T10:27:46.868Z,22.70
2019-06-26T10:30:14.513Z,22.50
2019-06-26T10:32:41.596Z,20.20
2019-06-26T10:35:09.347Z,19.80
2019-06-26T10:37:36.789Z,20.30
2019-06-26T10:40:05.097Z,19.90
2019-06-26T10:42:32.072Z,20.50
2019-06-26T10:44:58.988Z,19.80
2019-06-26T10:47:26.040Z,19.80
2019-06-26T10:49:53.037Z,19.80
2019-06-26T10:52:19.996Z,19.80
2019-06-26T10:54:47.052Z,19.80
2019-06-26T10:57:14.323Z,20.70
2019-06-26T10:59:41.305Z,21.10
2019-06-26T11:02:08.391Z,21.20
2019-06-26T11:04:35.529Z,21.50
2019-06-26T11:07:02.555Z,20.90
2019-06-26T11:09:29.866Z,21.10
2019-06-26T11:11:56.911Z,21.20
2019-06-26T11:14:23.899Z,21.40
2019-06-26T11:16:51.030Z,21.20
2019-06-26T11:19:18.136Z,21.20
2019-06-26T11:21:45.235Z,21.40
2019-06-26T11:24:12.332Z,21.70
2019-06-26T11:26:39.381Z,21.60
2019-06-26T11:29:06.454Z,21.20
2019-06-26T11:31:33.475Z,21.70
2019-06-26T11:34:00.576Z,21.40
2019-06-26T11:36:27.622Z,20.70
2019-06-26T11:38:54.656Z,20.50
2019-06-26T11:41:21.689Z,21.00
2019-06-26T11:43:48.822Z,20.80
2019-06-26T11:46:15.961Z,20.50
2019-06-26T11:48:43.023Z,20.60
2019-06-26T11:51:09.978Z,19.90
2019-06-26T11:53:37.000Z,19.90
2019-06-26T11:56:04.384Z,20.00
2019-06-26T11:58:31.343Z,20.00
2019-06-26T12:00:58.378Z,20.00
2019-06-26T12:03:25.300Z,20.40
2019-06-26T12:05:52.418Z,19.30
2019-06-26T12:08:19.393Z,18.90
2019-06-26T12:10:46.305Z,19.30
2019-06-26T12:13:14.296Z,18.70
2019-06-26T12:15:41.289Z,18.60
2019-06-26T12:18:08.199Z,18.50
2019-06-26T12:20:35.364Z,17.40
2019-06-26T12:23:02.453Z,17.90
2019-06-26T12:25:29.584Z,18.30
2019-06-26T12:27:57.792Z,18.00
2019-06-26T12:30:24.745Z,18.20
2019-06-26T12:33:02.152Z,17.90
2019-06-26T12:35:20.821Z,16.80
2019-06-26T12:37:47.897Z,16.80
2019-06-26T12:40:15.463Z,17.20
2019-06-26T12:42:42.602Z,17.00
2019-06-26T12:45:11.256Z,17.40
2019-06-26T12:47:38.415Z,16.90
2019-06-26T12:50:06.089Z,16.80
2019-06-26T12:52:33.112Z,17.50
2019-06-26T12:55:00.217Z,16.90
2019-06-26T12:57:28.334Z,16.10
2019-06-26T12:59:57.795Z,16.00
2019-06-26T13:02:24.320Z,16.40
2019-06-26T13:04:51.238Z,16.40
2019-06-26T13:07:18.245Z,16.00
2019-06-26T13:09:45.172Z,15.70
2019-06-26T13:12:12.132Z,15.30
2019-06-26T13:14:39.110Z,15.20
2019-06-26T13:17:06.009Z,15.70
2019-06-26T13:19:33.154Z,15.20
2019-06-26T13:22:00.296Z,15.60
2019-06-26T13:24:27.376Z,15.30
2019-06-26T13:26:54.752Z,15.50
2019-06-26T13:29:21.828Z,15.20
2019-06-26T13:31:48.915Z,15.40
2019-06-26T13:34:16.051Z,15.10
2019-06-26T13:36:43.114Z,14.20
2019-06-26T13:39:10.248Z,14.60
2019-06-26T13:41:37.409Z,15.00
2019-06-26T13:44:04.595Z,15.80
2019-06-26T13:46:31.583Z,17.00
2019-06-26T13:48:58.801Z,16.10
2019-06-26T13:51:25.800Z,16.10
2019-06-26T13:53:52.852Z,16.70
2019-06-26T13:56:23.402Z,17.00
2019-06-26T13:58:50.425Z,17.20
2019-06-26T14:01:17.574Z,17.30
2019-06-26T14:03:44.632Z,17.60
2019-06-26T14:06:11.672Z,17.70
2019-06-26T14:08:38.772Z,17.60
2019-06-26T14:11:07.586Z,17.20
2019-06-26T14:13:34.669Z,17.60
2019-06-26T14:16:01.693Z,17.50
2019-06-26T14:18:30.461Z,17.70
2019-06-26T14:20:57.653Z,17.60
2019-06-26T14:23:24.575Z,17.40
2019-06-26T14:25:51.704Z,17.50
2019-06-26T14:28:19.691Z,17.70
2019-06-26T14:30:46.995Z,17.70
2019-06-26T14:33:13.971Z,17.70
2019-06-26T14:35:40.978Z,18.30
2019-06-26T14:38:07.892Z,18.10
2019-06-26T14:40:34.962Z,18.60
2019-06-26T14:43:01.899Z,17.80
2019-06-26T14:45:28.835Z,17.70
2019-06-26T14:47:56.027Z,17.50
2019-06-26T14:50:23.074Z,17.90
2019-06-26T14:52:49.990Z,17.90
2019-06-26T14:55:17.034Z,17.90
2019-06-26T14:57:45.265Z,17.30
2019-06-26T15:00:13.956Z,16.80
2019-06-26T15:02:40.923Z,16.30
2019-06-26T15:05:09.392Z,16.80
2019-06-26T15:07:36.398Z,17.10
2019-06-26T15:10:04.018Z,17.10
2019-06-26T15:12:31.022Z,17.00
2019-06-26T15:14:58.069Z,16.80
2019-06-26T15:17:25.097Z,16.60
2019-06-26T15:19:52.158Z,16.30
2019-06-26T15:22:19.163Z,16.90
2019-06-26T15:24:46.162Z,16.30
2019-06-26T15:27:13.230Z,16.60
2019-06-26T15:29:40.617Z,16.70
2019-06-26T15:32:07.606Z,17.20
2019-06-26T15:34:34.605Z,17.40
2019-06-26T15:37:01.594Z,17.50
2019-06-26T15:39:28.739Z,17.30
2019-06-26T15:41:55.806Z,17.60
2019-06-26T15:44:22.897Z,17.70
2019-06-26T15:46:50.219Z,17.90
2019-06-26T15:49:17.248Z,17.80
2019-06-26T15:51:44.150Z,17.80
2019-06-26T15:54:11.106Z,18.00
2019-06-26T15:56:38.154Z,18.10
2019-06-26T15:59:05.145Z,18.00
2019-06-26T16:01:32.046Z,18.10
2019-06-26T16:03:59.082Z,17.90
2019-06-26T16:06:25.998Z,18.00
2019-06-26T16:08:52.980Z,18.50
2019-06-26T16:11:20.015Z,18.90
2019-06-26T16:13:47.128Z,18.90
2019-06-26T16:16:14.389Z,18.80
2019-06-26T16:18:43.340Z,18.80
2019-06-26T16:21:10.391Z,19.00
2019-06-26T16:23:37.434Z,18.80
2019-06-26T16:26:04.370Z,18.00
2019-06-26T16:28:31.423Z,18.40
2019-06-26T16:30:58.434Z,19.00
2019-06-26T16:33:25.578Z,18.70
2019-06-26T16:35:52.689Z,18.80
2019-06-26T16:38:19.759Z,19.00
2019-06-26T16:40:46.948Z,19.10
2019-06-26T16:43:13.961Z,18.80
2019-06-26T16:45:40.977Z,18.80
2019-06-26T16:48:07.896Z,19.00
2019-06-26T16:50:34.908Z,19.10
2019-06-26T16:53:01.883Z,18.80
2019-06-26T16:55:28.806Z,19.20
2019-06-26T16:57:55.690Z,19.70
2019-06-26T17:00:22.897Z,19.30
2019-06-26T17:02:49.974Z,19.60
2019-06-26T17:05:17.094Z,19.70
2019-06-26T17:07:44.060Z,20.20
2019-06-26T17:10:11.236Z,20.20
2019-06-26T17:12:38.139Z,20.20
2019-06-26T17:15:05.181Z,20.20
2019-06-26T17:17:32.426Z,20.20
2019-06-26T17:20:02.781Z,20.30
2019-06-26T17:22:29.781Z,20.40
2019-06-26T17:24:56.738Z,21.20
2019-06-26T17:27:23.841Z,21.20
2019-06-26T17:29:51.140Z,21.30
2019-06-26T17:32:18.142Z,21.70
2019-06-26T17:34:45.274Z,22.10
2019-06-26T17:37:12.724Z,22.40
2019-06-26T17:39:42.341Z,22.60
2019-06-26T17:42:09.918Z,22.50
2019-06-26T17:44:36.894Z,22.70
2019-06-26T17:47:25.172Z,22.80
2019-06-26T17:49:56.802Z,23.00
2019-06-26T17:52:24.613Z,23.40
2019-06-26T17:55:06.587Z,23.60
2019-06-26T17:57:33.930Z,23.90
2019-06-26T18:00:01.001Z,23.90
2019-06-26T18:02:27.964Z,23.80
2019-06-26T18:04:55.072Z,23.50
2019-06-26T18:07:22.125Z,23.10
2019-06-26T18:09:49.188Z,23.20
2019-06-26T18:12:16.267Z,23.60
2019-06-26T18:14:43.510Z,23.50
2019-06-26T18:17:21.688Z,23.80
2019-06-26T18:19:39.400Z,23.10
2019-06-26T18:22:06.345Z,23.30
2019-06-26T18:24:33.525Z,22.90
2019-06-26T18:27:00.516Z,22.50
2019-06-26T18:29:27.614Z,22.30
2019-06-26T18:31:55.218Z,22.20
2019-06-26T18:34:22.427Z,21.90
2019-06-26T18:36:49.569Z,22.00
2019-06-26T18:39:16.598Z,22.00
2019-06-26T18:41:43.663Z,21.50
2019-06-26T18:44:10.600Z,20.70
2019-06-26T18:46:37.731Z,20.80
2019-06-26T18:49:06.267Z,20.80
2019-06-26T18:51:41.078Z,20.70
2019-06-26T18:54:08.534Z,20.40
2019-06-26T18:56:35.673Z,20.60
2019-06-26T18:59:28.199Z,20.50
2019-06-26T19:01:57.979Z,20.50
2019-06-26T19:04:28.497Z,20.60
2019-06-26T19:06:55.472Z,20.00
2019-06-26T19:09:22.514Z,20.00
2019-06-26T19:11:49.757Z,19.80
2019-06-26T19:14:16.783Z,19.90
2019-06-26T19:16:43.795Z,20.10
2019-06-26T19:19:12.337Z,20.00
2019-06-26T19:21:39.535Z,19.80
2019-06-26T19:24:10.364Z,20.00
2019-06-26T19:26:35.466Z,19.80
2019-06-26T19:29:02.516Z,19.90
2019-06-26T19:31:29.503Z,19.70
2019-06-26T19:33:56.509Z,19.60
2019-06-26T19:36:26.160Z,19.80
2019-06-26T19:38:52.669Z,20.10
2019-06-26T19:41:19.921Z,20.10
2019-06-26T19:43:46.847Z,20.10
2019-06-26T19:46:15.194Z,20.40
2019-06-26T19:48:42.336Z,20.60
2019-06-26T19:51:09.485Z,20.80
2019-06-26T19:53:36.563Z,21.00
2019-06-26T19:56:03.657Z,21.30
2019-06-26T19:58:30.848Z,21.40
2019-06-26T20:00:58.577Z,21.60
2019-06-26T20:03:25.578Z,21.60
2019-06-26T20:05:53.562Z,21.90
2019-06-26T20:08:20.673Z,22.10
2019-06-26T20:10:47.659Z,22.20
2019-06-26T20:13:14.754Z,22.40
2019-06-26T20:15:41.717Z,22.30
2019-06-26T20:18:08.971Z,22.40
2019-06-26T20:20:45.467Z,22.40
2019-06-26T20:23:12.984Z,22.70
2019-06-26T20:25:40.059Z,22.90
2019-06-26T20:28:07.619Z,22.80
2019-06-26T20:30:35.410Z,22.90
2019-06-26T20:33:03.612Z,23.00
2019-06-26T20:35:33.066Z,22.90
2019-06-26T20:38:00.090Z,23.10
2019-06-26T20:40:27.330Z,23.40
2019-06-26T20:42:54.462Z,23.60
2019-06-26T20:45:21.522Z,23.70
2019-06-26T20:47:48.711Z,23.80
2019-06-26T20:50:15.733Z,24.00
2019-06-26T20:52:42.833Z,24.10
2019-06-26T20:55:10.073Z,24.20
2019-06-26T20:57:37.239Z,24.30
2019-06-26T21:00:06.165Z,24.40
2019-06-26T21:02:33.357Z,24.50
2019-06-26T21:05:00.402Z,24.50
2019-06-26T21:07:27.532Z,24.80
2019-06-26T21:09:54.526Z,24.80
2019-06-26T21:12:21.554Z,25.00
2019-06-26T21:14:48.611Z,25.10
2019-06-26T21:17:15.821Z,25.10
2019-06-26T21:19:43.004Z,25.30
2019-06-26T21:22:10.209Z,25.70
2019-06-26T21:24:38.961Z,25.70
2019-06-26T21:27:07.041Z,25.80
2019-06-26T21:29:34.059Z,26.20
2019-06-26T21:32:01.182Z,26.40
2019-06-26T21:34:28.343Z,26.40
2019-06-26T21:36:55.401Z,26.40
2019-06-26T21:39:22.489Z,26.40
2019-06-26T21:41:49.532Z,26.40
2019-06-26T21:44:16.598Z,26.40
2019-06-26T21:46:43.655Z,26.40
2019-06-26T21:49:10.741Z,26.40
2019-06-26T21:51:38.109Z,26.40
2019-06-26T21:54:05.236Z,26.70
2019-06-26T21:56:32.253Z,26.30
2019-06-26T21:58:59.624Z,26.80
2019-06-26T22:01:27.222Z,27.10
2019-06-26T22:03:54.284Z,27.30
2019-06-26T22:06:21.525Z,27.00
2019-06-26T22:08:48.635Z,27.10
2019-06-26T22:11:15.637Z,27.60
2019-06-26T22:13:42.700Z,27.30
2019-06-26T22:16:09.730Z,27.20
2019-06-26T22:18:36.622Z,27.40
2019-06-26T22:21:04.181Z,27.20
2019-06-26T22:23:31.211Z,27.30
2019-06-26T22:25:58.253Z,27.50
2019-06-26T22:28:25.308Z,27.60
2019-06-26T22:30:52.302Z,27.80
2019-06-26T22:33:19.211Z,27.90
2019-06-26T22:35:46.293Z,28.30
2019-06-26T22:38:13.306Z,28.30
2019-06-26T22:40:40.724Z,28.30
2019-06-26T22:43:07.885Z,28.30
2019-06-26T22:45:34.901Z,28.30
2019-06-26T22:48:02.054Z,28.50
2019-06-26T22:50:29.115Z,28.80
2019-06-26T22:52:56.230Z,29.60
2019-06-26T22:55:23.323Z,29.30
2019-06-26T22:57:50.381Z,29.30
2019-06-26T23:00:17.807Z,29.60
2019-06-26T23:02:44.982Z,29.70
2019-06-26T23:05:12.066Z,29.60
2019-06-26T23:07:39.068Z,29.60
2019-06-26T23:10:06.602Z,29.80
2019-06-26T23:12:33.574Z,30.00
2019-06-26T23:15:00.616Z,30.00
2019-06-26T23:17:27.667Z,30.00
2019-06-26T23:19:54.718Z,30.30
2019-06-26T23:22:21.794Z,30.00
2019-06-26T23:24:49.067Z,30.50
2019-06-26T23:27:16.192Z,31.00
2019-06-26T23:29:43.205Z,31.10
2019-06-26T23:32:10.257Z,31.30
2019-06-26T23:34:37.202Z,31.40
2019-06-26T23:37:04.289Z,32.20
2019-06-26T23:39:32.407Z,32.00
2019-06-26T23:41:59.473Z,31.80
2019-06-26T23:44:26.522Z,31.80
2019-06-26T23:46:53.566Z,31.80
2019-06-26T23:49:20.651Z,32.10
2019-06-26T23:51:47.765Z,32.80
2019-06-26T23:54:14.776Z,32.40
2019-06-26T23:56:41.793Z,32.70
2019-06-26T23:59:08.816Z,32.60
